Terminal Aerodrome Forecast
Issued by NWS

Home | Current Version | Previous Version | Text Only | Print | Product List | Glossary On
Versions: 1 2 3 4 5 6 7 8 9 10 11 12 13 14 15 16
000
FTUS45 KMSO 131120
TAFSMN
TAF
KSMN 131120Z 1312/1412 00000KT P6SM FEW007 BKN100
     FM131500 00000KT 5SM -SN BR OVC050
     FM131600 00000KT 1SM -SN BR BKN006 OVC030
     FM131900 VRB03KT 5SM -SN BKN007 BKN040
     FM132100 VRB03KT P6SM BKN015=

USA.gov is the U.S. government's official web portal to all federal, state and local government web resources and services.